Time;durP1;ratioP1;P1;durP2;ratioP2;P2;SDS_P1;SDS_P2;PMS_P1;PMS_P2;Temp;Humidity;BMP_temperature;BMP_pressure;BME280_temperature;BME280_humidity;BME280_pressure;Samples;Min_cycle;Max_cycle;Signal;HPM_P1;HPM_P2
2021/05/28 00:01:22;;;;;;;11.20;10.20;;;9.80;99.90;;;;;;5053902;28;20449;-83
2021/05/28 00:03:57;;;;;;;10.57;9.50;;;9.70;99.90;;;;;;5051684;28;20461;-82
2021/05/28 00:06:35;;;;;;;11.47;9.67;;;9.80;99.90;;;;;;5053303;28;20529;-83
2021/05/28 00:09:11;;;;;;;10.30;9.30;;;9.80;99.90;;;;;;5053928;28;20451;-81
2021/05/28 00:11:46;;;;;;;11.87;9.70;;;9.80;99.90;;;;;;5058214;28;20487;-84
2021/05/28 00:14:21;;;;;;;11.27;10.23;;;9.70;99.90;;;;;;5051844;28;20454;-83
2021/05/28 00:16:57;;;;;;;10.63;9.63;;;9.70;99.90;;;;;;5047792;28;20935;-82
2021/05/28 00:19:32;;;;;;;10.27;9.27;;;9.70;99.90;;;;;;5059201;28;20451;-83
2021/05/28 00:22:07;;;;;;;11.40;10.30;;;9.70;99.90;;;;;;5060440;28;20461;-81
2021/05/28 00:24:39;;;;;;;11.30;10.30;;;9.70;99.90;;;;;;5066507;28;20452;-84
2021/05/28 00:27:14;;;;;;;12.70;11.07;;;9.70;99.90;;;;;;5068487;28;20475;-83
2021/05/28 00:29:49;;;;;;;11.57;10.33;;;9.60;99.90;;;;;;5068531;28;20485;-81
2021/05/28 00:32:24;;;;;;;12.23;10.97;;;9.70;99.90;;;;;;5066975;28;20483;-82
2021/05/28 00:34:58;;;;;;;11.87;10.77;;;9.70;99.90;;;;;;5084253;28;20447;-82
2021/05/28 00:37:34;;;;;;;12.67;11.47;;;9.70;99.90;;;;;;5063642;28;20431;-82
2021/05/28 00:40:10;;;;;;;12.77;10.30;;;9.70;99.90;;;;;;5085937;28;20484;-81
2021/05/28 00:42:44;;;;;;;12.80;11.60;;;9.60;99.90;;;;;;5052198;28;20453;-81
2021/05/28 00:45:21;;;;;;;12.90;11.63;;;9.60;99.90;;;;;;5052672;28;21087;-83
2021/05/28 00:47:52;;;;;;;14.07;12.60;;;9.60;99.90;;;;;;5049086;28;20573;-82
2021/05/28 00:50:29;;;;;;;12.80;11.53;;;9.60;99.90;;;;;;5055809;28;20459;-83
2021/05/28 00:53:06;;;;;;;13.23;11.97;;;9.60;99.90;;;;;;5055016;28;20872;-82
2021/05/28 00:55:41;;;;;;;12.20;11.00;;;9.70;99.90;;;;;;5081534;28;20452;-81
2021/05/28 00:58:17;;;;;;;13.40;11.93;;;9.60;99.90;;;;;;5058802;28;20477;-83
2021/05/28 01:01:00;;;;;;;13.20;11.90;;;9.60;99.90;;;;;;5058320;28;20453;-82
2021/05/28 01:03:43;;;;;;;13.03;11.80;;;9.60;99.90;;;;;;5058074;28;20437;-81
2021/05/28 01:06:19;;;;;;;14.20;12.80;;;9.60;99.90;;;;;;5056791;28;20507;-82
2021/05/28 01:09:00;;;;;;;13.43;12.03;;;9.60;99.90;;;;;;5052816;28;20532;-81
2021/05/28 01:11:38;;;;;;;12.80;11.50;;;9.60;99.90;;;;;;5051753;28;20450;-81
2021/05/28 01:14:10;;;;;;;13.60;12.30;;;9.50;99.90;;;;;;5054732;28;20479;-84
2021/05/28 01:16:45;;;;;;;14.10;12.80;;;9.50;99.90;;;;;;5054636;28;20456;-82
2021/05/28 01:19:20;;;;;;;13.40;12.10;;;9.50;99.90;;;;;;5061602;28;20463;-82
2021/05/28 01:21:52;;;;;;;12.90;11.63;;;9.40;99.90;;;;;;5055444;28;20460;-81
2021/05/28 01:24:28;;;;;;;15.60;13.83;;;9.40;99.90;;;;;;5056318;28;20446;-81
2021/05/28 01:27:03;;;;;;;14.40;12.90;;;9.40;99.90;;;;;;5056417;28;20474;-81
2021/05/28 01:29:38;;;;;;;15.47;13.83;;;9.40;99.90;;;;;;5051559;28;20455;-81
2021/05/28 01:32:11;;;;;;;14.17;12.77;;;9.40;99.90;;;;;;5051183;28;20542;-81
2021/05/28 01:34:46;;;;;;;15.50;13.77;;;9.30;99.90;;;;;;5049048;28;21002;-81
2021/05/28 01:37:22;;;;;;;16.07;13.50;;;9.20;99.90;;;;;;5054738;28;20831;-81
2021/05/28 01:39:57;;;;;;;15.90;14.30;;;9.20;99.90;;;;;;5048453;28;20496;-82
2021/05/28 01:42:32;;;;;;;15.97;14.47;;;9.20;99.90;;;;;;5053683;28;20450;-81
2021/05/28 01:45:09;;;;;;;14.23;12.83;;;9.20;99.90;;;;;;5057718;28;20813;-81
2021/05/28 01:47:43;;;;;;;14.80;13.40;;;9.20;99.90;;;;;;5045575;28;20564;-81
2021/05/28 01:50:25;;;;;;;14.73;13.23;;;9.20;99.90;;;;;;5056068;28;20484;-82
2021/05/28 01:53:00;;;;;;;16.23;14.30;;;9.20;99.90;;;;;;5052365;28;20510;-82
2021/05/28 01:55:36;;;;;;;18.07;14.50;;;9.30;99.90;;;;;;5044414;28;20481;-83
2021/05/28 01:58:18;;;;;;;16.23;14.40;;;9.30;99.90;;;;;;5053126;28;20487;-82
2021/05/28 02:00:52;;;;;;;16.37;14.30;;;9.40;99.90;;;;;;5053792;28;20467;-83
2021/05/28 02:03:27;;;;;;;16.40;14.80;;;9.40;99.90;;;;;;5058188;28;21458;-82
2021/05/28 02:06:02;;;;;;;15.60;14.00;;;9.30;99.90;;;;;;5053302;28;20440;-81
2021/05/28 02:08:42;;;;;;;16.40;14.70;;;9.30;99.90;;;;;;5061403;28;20481;-83
2021/05/28 02:11:17;;;;;;;18.77;14.10;;;9.40;99.90;;;;;;5058645;28;20996;-83
2021/05/28 02:13:52;;;;;;;15.97;14.17;;;9.40;99.90;;;;;;5057871;28;20583;-82
2021/05/28 02:16:27;;;;;;;17.27;15.37;;;9.30;99.90;;;;;;5057435;28;20482;-82
2021/05/28 02:19:08;;;;;;;15.37;13.70;;;9.20;99.90;;;;;;5051931;28;20567;-84
2021/05/28 02:21:43;;;;;;;15.03;13.53;;;9.20;99.90;;;;;;5054762;28;20464;-83
2021/05/28 02:24:19;;;;;;;16.40;14.57;;;9.10;99.90;;;;;;5055676;28;20544;-82
2021/05/28 02:26:56;;;;;;;16.80;14.97;;;9.10;99.90;;;;;;5054816;28;20487;-83
2021/05/28 02:29:31;;;;;;;19.47;15.20;;;9.10;99.90;;;;;;5050690;28;20440;-82
2021/05/28 02:32:06;;;;;;;17.47;14.60;;;9.00;99.90;;;;;;5060453;28;20457;-82
2021/05/28 02:34:42;;;;;;;17.10;15.23;;;8.90;99.90;;;;;;5055274;28;20459;-81
2021/05/28 02:37:16;;;;;;;16.87;15.13;;;8.80;99.90;;;;;;5051781;28;20539;-82
2021/05/28 02:39:51;;;;;;;18.70;16.30;;;8.70;99.90;;;;;;5060589;28;21195;-82
2021/05/28 02:42:43;;;;;;;17.57;15.53;;;8.80;99.90;;;;;;5050136;28;20471;-82
2021/05/28 02:45:19;;;;;;;16.90;15.27;;;8.90;99.90;;;;;;5058274;28;20446;-82
2021/05/28 02:47:57;;;;;;;19.07;16.93;;;9.00;99.90;;;;;;5059433;28;20476;-81
2021/05/28 02:50:33;;;;;;;19.57;16.57;;;9.00;99.90;;;;;;5048456;28;20492;-82
2021/05/28 02:53:10;;;;;;;19.77;16.83;;;9.00;99.90;;;;;;5047544;28;20536;-81
2021/05/28 02:55:44;;;;;;;19.63;16.67;;;9.10;99.90;;;;;;5062348;28;21015;-83
2021/05/28 02:58:22;;;;;;;20.90;18.60;;;9.10;99.90;;;;;;5046507;28;20983;-81
2021/05/28 03:00:57;;;;;;;23.47;18.00;;;9.10;99.90;;;;;;5049339;28;20448;-81
2021/05/28 03:03:32;;;;;;;20.33;17.40;;;9.20;99.90;;;;;;5048368;28;20479;-81
2021/05/28 03:06:16;;;;;;;20.80;18.60;;;9.20;99.90;;;;;;5048887;28;20488;-83
2021/05/28 03:08:51;;;;;;;22.67;18.70;;;9.20;99.90;;;;;;5049852;28;20516;-81
2021/05/28 03:11:26;;;;;;;20.37;18.00;;;9.10;99.90;;;;;;5059550;28;20447;-81
2021/05/28 03:14:02;;;;;;;22.67;20.20;;;9.10;99.90;;;;;;5050806;28;20452;-82
2021/05/28 03:16:37;;;;;;;22.70;19.83;;;9.20;99.90;;;;;;5051006;28;21280;-82
2021/05/28 03:19:19;;;;;;;19.93;17.70;;;9.20;99.90;;;;;;5056706;28;21036;-81
2021/05/28 03:24:45;;;;;;;20.67;17.23;;;9.30;99.90;;;;;;5046407;28;20472;-81
2021/05/28 03:27:20;;;;;;;20.27;16.37;;;9.40;99.90;;;;;;5049818;28;20486;-83
2021/05/28 03:29:56;;;;;;;20.13;17.77;;;9.40;99.90;;;;;;5049069;28;20535;-83
2021/05/28 03:32:30;;;;;;;18.93;16.90;;;9.50;99.90;;;;;;5053193;28;20451;-81
2021/05/28 03:35:06;;;;;;;18.43;16.47;;;9.50;99.90;;;;;;5056184;28;20457;-82
2021/05/28 03:37:39;;;;;;;20.63;18.30;;;9.60;99.90;;;;;;5049868;28;20452;-82
2021/05/28 03:40:14;;;;;;;21.00;17.90;;;9.60;99.90;;;;;;5046987;28;20527;-82
2021/05/28 03:42:58;;;;;;;21.10;17.90;;;9.50;99.90;;;;;;5054495;28;20466;-84
2021/05/28 03:45:42;;;;;;;22.50;18.70;;;9.60;99.90;;;;;;5058750;28;20460;-81
2021/05/28 03:48:17;;;;;;;20.23;18.03;;;9.60;99.90;;;;;;5049426;28;20477;-81
2021/05/28 03:50:56;;;;;;;19.90;17.80;;;9.60;99.90;;;;;;5048824;28;20446;-82
2021/05/28 03:53:31;;;;;;;22.67;18.17;;;9.60;99.90;;;;;;5054641;28;20468;-81
2021/05/28 03:56:12;;;;;;;24.13;18.33;;;9.50;99.90;;;;;;5049074;28;20457;-82
2021/05/28 03:58:46;;;;;;;19.33;17.33;;;9.60;99.90;;;;;;5058385;28;20508;-82
2021/05/28 04:01:22;;;;;;;21.77;17.20;;;9.60;99.90;;;;;;5063441;28;20578;-82
2021/05/28 04:03:57;;;;;;;20.17;18.03;;;9.60;99.90;;;;;;5062044;28;20460;-81
2021/05/28 04:06:31;;;;;;;23.13;17.97;;;9.60;99.90;;;;;;5055424;28;20475;-83
2021/05/28 04:09:07;;;;;;;20.17;17.77;;;9.70;99.90;;;;;;5072707;28;20432;-83
2021/05/28 04:11:42;;;;;;;19.63;17.63;;;9.70;99.90;;;;;;5067288;28;20491;-83
2021/05/28 04:14:17;;;;;;;21.90;18.67;;;9.70;99.90;;;;;;5073786;28;20627;-81
2021/05/28 04:16:53;;;;;;;22.17;18.83;;;9.60;99.90;;;;;;5076330;28;20471;-82
2021/05/28 04:19:27;;;;;;;23.53;19.87;;;9.60;99.90;;;;;;5075459;28;20527;-81
2021/05/28 04:22:02;;;;;;;22.87;20.07;;;9.70;99.90;;;;;;5073170;28;20449;-82
2021/05/28 04:24:37;;;;;;;20.67;18.47;;;9.70;99.90;;;;;;5062527;28;20455;-83
2021/05/28 04:27:12;;;;;;;21.70;18.10;;;9.70;99.90;;;;;;5061622;28;20490;-83
2021/05/28 04:29:47;;;;;;;23.80;20.03;;;9.70;99.90;;;;;;5057784;28;20542;-81
2021/05/28 04:32:22;;;;;;;25.83;21.03;;;9.70;99.90;;;;;;5062909;28;20458;-83
2021/05/28 04:34:57;;;;;;;26.67;21.57;;;9.80;99.90;;;;;;5064646;28;21502;-81
2021/05/28 04:37:38;;;;;;;23.13;19.57;;;9.90;99.90;;;;;;5059657;28;20449;-84
2021/05/28 04:40:22;;;;;;;25.10;19.70;;;9.90;99.90;;;;;;5053998;28;20475;-83
2021/05/28 04:42:57;;;;;;;22.47;18.93;;;10.10;99.90;;;;;;5048475;28;20948;-83
2021/05/28 04:45:34;;;;;;;22.23;19.30;;;10.30;99.90;;;;;;5059760;28;20449;-82
2021/05/28 04:48:10;;;;;;;23.57;19.03;;;10.80;99.90;;;;;;5049073;28;20480;-82
2021/05/28 04:50:52;;;;;;;25.50;18.90;;;10.90;97.30;;;;;;5053556;28;20449;-82
2021/05/28 04:53:26;;;;;;;19.27;17.23;;;10.90;96.60;;;;;;5071915;28;20476;-81
2021/05/28 04:56:01;;;;;;;19.63;17.53;;;11.00;94.60;;;;;;5059918;28;21298;-81
2021/05/28 04:58:36;;;;;;;19.10;17.17;;;12.30;93.40;;;;;;5050323;28;20479;-83
2021/05/28 05:01:08;;;;;;;17.43;15.73;;;13.70;86.80;;;;;;5057339;28;20459;-83
2021/05/28 05:03:44;;;;;;;19.97;16.47;;;13.30;83.10;;;;;;5052548;28;20449;-82
2021/05/28 05:06:19;;;;;;;18.63;16.80;;;12.80;84.00;;;;;;5063768;28;20437;-83
2021/05/28 05:08:54;;;;;;;18.97;16.20;;;12.20;86.00;;;;;;5063681;28;20566;-81
2021/05/28 05:14:16;;;;;;;19.17;17.33;;;11.80;86.80;;;;;;5062513;28;20507;-82
2021/05/28 05:16:51;;;;;;;18.00;16.10;;;11.50;89.70;;;;;;5055337;28;20457;-81
2021/05/28 05:19:26;;;;;;;19.03;16.90;;;11.20;90.90;;;;;;5043100;28;20459;-81
2021/05/28 05:22:01;;;;;;;20.00;17.13;;;11.20;90.90;;;;;;5061626;28;21185;-82
2021/05/28 05:24:37;;;;;;;21.03;18.70;;;11.20;91.40;;;;;;5058388;28;20475;-82
2021/05/28 05:27:26;;;;;;;20.50;17.00;;;11.60;90.20;;;;;;5062460;28;20559;-83
2021/05/28 05:30:02;;;;;;;19.97;16.33;;;11.40;89.40;;;;;;5055860;28;20448;-81
2021/05/28 05:32:37;;;;;;;20.50;18.30;;;11.40;91.50;;;;;;5060842;28;20448;-82
2021/05/28 05:35:14;;;;;;;18.43;16.40;;;11.30;91.30;;;;;;5054417;28;20451;-81
2021/05/28 05:37:49;;;;;;;20.87;18.73;;;11.50;91.00;;;;;;5063113;28;20446;-81
2021/05/28 05:40:24;;;;;;;21.57;17.43;;;11.30;90.70;;;;;;5059133;28;20832;-82
2021/05/28 05:43:13;;;;;;;17.57;15.67;;;11.40;90.60;;;;;;5050434;28;20502;-82
2021/05/28 05:45:53;;;;;;;19.57;17.30;;;11.20;89.60;;;;;;5053592;28;20441;-81
2021/05/28 05:48:29;;;;;;;20.07;17.80;;;11.10;90.50;;;;;;5068899;28;20468;-83
2021/05/28 05:51:05;;;;;;;21.20;17.80;;;11.60;88.90;;;;;;5056382;28;20448;-82
2021/05/28 05:53:45;;;;;;;17.47;15.70;;;12.10;87.00;;;;;;5062655;28;20491;-82
2021/05/28 05:56:20;;;;;;;20.90;18.80;;;12.00;83.20;;;;;;5043779;28;20451;-84
2021/05/28 05:59:03;;;;;;;18.73;16.97;;;12.20;84.00;;;;;;5063325;28;20274;-85
2021/05/28 06:01:38;;;;;;;18.10;16.30;;;12.40;83.90;;;;;;5052421;28;20514;-83
2021/05/28 06:04:13;;;;;;;16.20;14.50;;;13.30;82.90;;;;;;5051857;28;20457;-80
2021/05/28 06:06:49;;;;;;;15.93;14.43;;;13.70;79.30;;;;;;5048517;28;20484;-84
2021/05/28 06:09:29;;;;;;;15.97;14.43;;;14.20;79.00;;;;;;5057624;28;21000;-82
2021/05/28 06:12:05;;;;;;;15.50;13.97;;;14.50;77.40;;;;;;5058523;28;20543;-84
2021/05/28 06:14:41;;;;;;;15.00;13.47;;;13.20;78.80;;;;;;5044048;28;20459;-86
2021/05/28 06:17:17;;;;;;;15.43;14.00;;;12.90;79.00;;;;;;5033914;28;20477;-87
2021/05/28 06:25:50;;;;;;;20.37;14.43;;;12.60;80.40;;;;;;5045772;28;20480;-81
2021/05/28 06:28:25;;;;;;;16.33;14.83;;;12.90;80.00;;;;;;5055323;28;20505;-81
2021/05/28 06:31:00;;;;;;;15.50;13.90;;;13.40;79.30;;;;;;5061227;28;20516;-81
2021/05/28 06:33:34;;;;;;;15.67;14.20;;;13.60;78.30;;;;;;5044635;28;20473;-83
2021/05/28 06:36:10;;;;;;;16.07;14.50;;;13.60;79.00;;;;;;5053668;28;20452;-82
2021/05/28 06:38:46;;;;;;;16.30;13.30;;;13.20;79.40;;;;;;5048992;28;20459;-82
2021/05/28 06:41:27;;;;;;;14.97;13.40;;;13.40;79.00;;;;;;5049715;28;20464;-82
2021/05/28 06:44:02;;;;;;;19.90;14.30;;;12.90;78.00;;;;;;5050490;28;20460;-82
2021/05/28 06:46:38;;;;;;;17.17;15.47;;;12.90;79.50;;;;;;5038866;28;20468;-83
2021/05/28 06:49:13;;;;;;;15.63;14.13;;;13.10;78.60;;;;;;5043099;28;20475;-83
2021/05/28 06:51:48;;;;;;;15.07;13.57;;;12.80;79.60;;;;;;5036984;28;20450;-81
2021/05/28 06:54:24;;;;;;;14.83;13.33;;;13.10;79.00;;;;;;5054021;28;20476;-81
2021/05/28 06:57:01;;;;;;;15.30;13.90;;;13.30;78.90;;;;;;5040263;28;20540;-82
2021/05/28 06:59:36;;;;;;;13.33;11.93;;;13.00;78.90;;;;;;5037622;28;20462;-80
2021/05/28 07:02:11;;;;;;;14.90;13.50;;;12.80;79.10;;;;;;5046461;28;20453;-82
2021/05/28 07:04:46;;;;;;;15.40;12.70;;;12.70;79.40;;;;;;5056258;28;20466;-82
2021/05/28 07:07:21;;;;;;;13.17;11.87;;;12.70;78.50;;;;;;5051568;28;20469;-80
2021/05/28 07:10:02;;;;;;;13.17;11.80;;;12.90;79.00;;;;;;5051112;28;20473;-82
2021/05/28 07:12:36;;;;;;;15.40;12.00;;;12.80;79.40;;;;;;5048913;28;20436;-81
2021/05/28 07:15:12;;;;;;;15.13;12.57;;;13.00;79.10;;;;;;5046876;28;20479;-80
2021/05/28 07:17:47;;;;;;;15.40;13.90;;;12.60;80.10;;;;;;5060700;28;20448;-83
2021/05/28 07:20:23;;;;;;;15.00;13.40;;;13.00;79.30;;;;;;5052262;28;20461;-82
2021/05/28 07:22:58;;;;;;;18.40;14.27;;;13.30;78.90;;;;;;5046185;28;20536;-81
2021/05/28 07:25:34;;;;;;;12.53;11.37;;;13.30;79.40;;;;;;5041281;28;20454;-82
2021/05/28 07:28:14;;;;;;;13.37;10.80;;;13.60;78.60;;;;;;5044862;28;20545;-83
2021/05/28 07:30:49;;;;;;;12.50;11.23;;;14.00;78.20;;;;;;5044893;28;20458;-82
2021/05/28 07:33:24;;;;;;;12.30;11.13;;;14.30;77.00;;;;;;5053948;28;21077;-82
2021/05/28 07:35:59;;;;;;;12.40;11.27;;;15.10;75.20;;;;;;5058623;28;20896;-83
2021/05/28 07:38:35;;;;;;;11.50;10.50;;;15.10;75.20;;;;;;5049690;28;20486;-83
2021/05/28 07:41:11;;;;;;;13.40;11.40;;;15.00;74.90;;;;;;5052905;28;20457;-83
2021/05/28 07:43:46;;;;;;;13.97;12.50;;;14.70;74.20;;;;;;5064814;28;20453;-84
2021/05/28 07:46:19;;;;;;;12.43;11.30;;;13.80;74.60;;;;;;5054277;28;20548;-83
2021/05/28 07:48:54;;;;;;;13.93;10.50;;;13.80;75.30;;;;;;5058712;28;20531;-83
2021/05/28 07:51:31;;;;;;;11.43;10.47;;;13.80;75.60;;;;;;5075520;28;20457;-82
2021/05/28 07:54:06;;;;;;;11.70;10.60;;;14.00;75.60;;;;;;5072520;28;20450;-82
2021/05/28 07:56:42;;;;;;;12.50;9.90;;;14.30;74.60;;;;;;5067360;28;20549;-82
2021/05/28 07:59:17;;;;;;;11.57;10.47;;;13.70;74.00;;;;;;5069867;28;20443;-82
2021/05/28 08:01:52;;;;;;;11.33;10.33;;;14.20;73.70;;;;;;5076569;28;20442;-83
2021/05/28 08:04:27;;;;;;;11.07;9.97;;;15.00;71.60;;;;;;5092613;28;20469;-81
2021/05/28 08:07:02;;;;;;;9.20;8.40;;;15.10;71.60;;;;;;5060476;28;20481;-82
2021/05/28 08:09:37;;;;;;;9.80;9.00;;;15.60;70.60;;;;;;5052068;28;20911;-81
2021/05/28 08:12:13;;;;;;;16.53;10.77;;;15.40;69.80;;;;;;5057749;28;20456;-81
2021/05/28 08:14:47;;;;;;;11.20;10.10;;;15.30;70.40;;;;;;5052950;28;20494;-82
2021/05/28 08:17:23;;;;;;;10.90;9.90;;;16.00;69.70;;;;;;5056415;28;20609;-81
2021/05/28 08:19:58;;;;;;;11.23;9.40;;;16.10;69.10;;;;;;5055483;28;20449;-83
2021/05/28 08:22:33;;;;;;;8.90;8.13;;;16.30;68.80;;;;;;5049862;28;20558;-85
2021/05/28 08:25:05;;;;;;;8.90;8.13;;;16.50;66.90;;;;;;5048989;28;20440;-84
2021/05/28 08:27:41;;;;;;;9.20;8.27;;;16.30;66.60;;;;;;5060309;28;20473;-82
2021/05/28 08:30:18;;;;;;;9.97;9.03;;;16.90;66.20;;;;;;5053383;28;20488;-84
2021/05/28 08:32:57;;;;;;;7.23;6.53;;;16.70;65.30;;;;;;5045302;28;20496;-84
2021/05/28 08:35:32;;;;;;;10.57;7.77;;;16.20;65.60;;;;;;5049218;28;20441;-84
2021/05/28 08:38:08;;;;;;;8.43;7.73;;;16.90;65.00;;;;;;5045298;28;20752;-82
2021/05/28 08:40:45;;;;;;;8.17;7.40;;;17.10;64.60;;;;;;5046217;28;20542;-81
2021/05/28 08:43:22;;;;;;;7.40;6.80;;;16.50;64.80;;;;;;5045863;28;21325;-83
2021/05/28 08:46:00;;;;;;;8.80;8.00;;;16.20;64.30;;;;;;5049067;28;20441;-83
2021/05/28 08:48:36;;;;;;;9.53;8.60;;;15.90;65.20;;;;;;5045582;28;20491;-82
2021/05/28 08:51:11;;;;;;;8.40;7.60;;;15.40;65.50;;;;;;5044142;28;20481;-82
2021/05/28 08:53:47;;;;;;;8.63;7.80;;;15.70;65.40;;;;;;5046182;28;20979;-81
2021/05/28 08:56:21;;;;;;;8.30;7.60;;;15.20;65.10;;;;;;5049314;28;20461;-82
2021/05/28 08:58:57;;;;;;;8.90;7.33;;;14.80;64.90;;;;;;5051359;28;20527;-81
2021/05/28 09:01:32;;;;;;;9.30;8.47;;;14.60;65.80;;;;;;5052325;28;20478;-81
2021/05/28 09:04:08;;;;;;;8.80;8.10;;;14.50;66.30;;;;;;5046483;28;20811;-80
2021/05/28 09:06:47;;;;;;;7.70;6.93;;;14.00;66.40;;;;;;5051397;28;20453;-85
2021/05/28 09:09:27;;;;;;;8.83;8.00;;;14.60;66.90;;;;;;5055643;28;20514;-81
2021/05/28 09:12:05;;;;;;;9.63;8.60;;;14.00;67.90;;;;;;5051761;28;20452;-82
2021/05/28 09:14:43;;;;;;;9.40;8.40;;;14.80;67.40;;;;;;5042981;28;20445;-86
2021/05/28 09:17:19;;;;;;;8.60;7.80;;;14.90;67.10;;;;;;5051396;28;20456;-87
2021/05/28 09:20:01;;;;;;;8.73;8.00;;;14.80;66.90;;;;;;5056547;28;20445;-87
2021/05/28 09:22:38;;;;;;;8.00;7.20;;;14.50;67.50;;;;;;5055291;28;21038;-85
2021/05/28 09:25:13;;;;;;;8.50;7.70;;;15.00;66.80;;;;;;5043526;28;20453;-83
2021/05/28 09:27:50;;;;;;;10.57;8.70;;;15.00;67.50;;;;;;5055645;28;20473;-81
2021/05/28 09:30:26;;;;;;;8.60;7.80;;;15.00;67.10;;;;;;5047516;28;20538;-80
2021/05/28 09:33:01;;;;;;;8.10;7.40;;;14.70;67.40;;;;;;5041056;28;20459;-81
2021/05/28 09:35:37;;;;;;;9.03;8.20;;;14.50;67.60;;;;;;5049288;28;20458;-81
2021/05/28 09:38:11;;;;;;;8.77;8.07;;;14.70;68.20;;;;;;5052784;28;20528;-81
2021/05/28 09:40:49;;;;;;;7.87;7.03;;;14.50;67.90;;;;;;5042677;28;20483;-80
2021/05/28 09:43:25;;;;;;;10.23;9.20;;;14.50;67.80;;;;;;5056262;28;20454;-80
2021/05/28 09:46:00;;;;;;;9.77;8.43;;;14.50;67.70;;;;;;5050648;28;20457;-81
2021/05/28 09:48:37;;;;;;;8.77;7.90;;;14.10;67.70;;;;;;5050077;28;20531;-79
2021/05/28 09:51:13;;;;;;;8.80;7.90;;;14.20;69.10;;;;;;5045383;28;20464;-80
2021/05/28 09:53:48;;;;;;;8.07;7.37;;;14.20;69.00;;;;;;5060273;28;20622;-80
2021/05/28 09:56:34;;;;;;;8.10;7.30;;;14.90;68.30;;;;;;5045753;28;20539;-82
2021/05/28 09:59:15;;;;;;;7.63;6.93;;;14.60;66.80;;;;;;5049783;28;20470;-80
2021/05/28 10:02:02;;;;;;;7.33;6.60;;;14.90;67.10;;;;;;5050864;28;20448;-81
2021/05/28 10:04:37;;;;;;;7.13;5.70;;;15.30;66.70;;;;;;5055931;28;20440;-81
2021/05/28 10:07:12;;;;;;;7.20;5.20;;;15.70;65.90;;;;;;5046102;28;20545;-81
2021/05/28 10:09:48;;;;;;;5.77;5.37;;;15.30;65.80;;;;;;5050970;28;21031;-79
2021/05/28 10:12:23;;;;;;;5.77;5.17;;;15.60;64.70;;;;;;5053757;28;20711;-81
2021/05/28 10:14:58;;;;;;;7.40;5.17;;;15.90;64.90;;;;;;5045023;28;20448;-80
2021/05/28 10:17:34;;;;;;;5.53;4.93;;;16.30;63.90;;;;;;5043412;28;20451;-81
2021/05/28 10:20:11;;;;;;;5.60;4.97;;;16.00;63.30;;;;;;5045620;28;20444;-82
2021/05/28 10:22:45;;;;;;;5.80;5.30;;;16.10;64.40;;;;;;5045077;28;20463;-80
2021/05/28 10:25:20;;;;;;;5.50;5.00;;;16.70;64.40;;;;;;5045384;28;20542;-84
2021/05/28 10:27:59;;;;;;;5.10;4.70;;;17.40;63.30;;;;;;5045250;28;21198;-84
2021/05/28 10:30:49;;;;;;;7.33;4.70;;;18.20;61.60;;;;;;5046258;28;20517;-82
2021/05/28 10:33:32;;;;;;;6.17;5.57;;;17.70;61.30;;;;;;5040375;28;21023;-85
2021/05/28 10:36:09;;;;;;;5.20;4.80;;;17.50;60.40;;;;;;5046091;28;20865;-85
2021/05/28 10:38:55;;;;;;;5.00;4.57;;;18.20;61.10;;;;;;5046574;28;20847;-84
2021/05/28 10:44:46;;;;;;;5.17;4.67;;;18.80;59.70;;;;;;5055566;28;20454;-88
2021/05/28 10:47:40;;;;;;;3.50;3.20;;;19.30;58.40;;;;;;5046476;28;20484;-85
2021/05/28 10:50:17;;;;;;;5.20;3.50;;;19.50;56.00;;;;;;5056879;28;20477;-83
2021/05/28 10:53:11;;;;;;;3.87;3.57;;;18.50;57.00;;;;;;5055497;28;20458;-83
2021/05/28 10:56:05;;;;;;;4.70;3.90;;;18.90;56.80;;;;;;5051669;28;20455;-83
2021/05/28 10:58:57;;;;;;;4.73;3.90;;;17.90;56.80;;;;;;5045636;28;20464;-83
2021/05/28 11:01:52;;;;;;;4.77;3.97;;;18.50;56.50;;;;;;5054495;28;20460;-83
2021/05/28 11:04:50;;;;;;;4.03;3.70;;;17.80;57.40;;;;;;5064928;28;20571;-83
2021/05/28 11:07:26;;;;;;;4.77;3.73;;;18.10;56.90;;;;;;5054613;28;20458;-84
2021/05/28 11:10:18;;;;;;;4.50;3.10;;;16.40;57.70;;;;;;5049732;28;20450;-85
2021/05/28 11:12:54;;;;;;;4.97;4.03;;;16.40;58.20;;;;;;5050842;28;20464;-88
2021/05/28 11:15:36;;;;;;;4.00;3.50;;;15.40;58.20;;;;;;5055843;28;20475;-84
2021/05/28 11:18:13;;;;;;;4.60;4.20;;;15.70;58.70;;;;;;5053723;28;20467;-87
2021/05/28 11:23:47;;;;;;;6.07;4.50;;;15.10;59.90;;;;;;5058346;28;20436;-87
2021/05/28 11:26:36;;;;;;;4.20;3.80;;;15.40;59.50;;;;;;5061901;28;20596;-83
2021/05/28 11:29:25;;;;;;;4.83;3.77;;;15.20;60.40;;;;;;5055313;28;20483;-80
2021/05/28 11:32:03;;;;;;;3.50;3.10;;;15.30;59.80;;;;;;5062862;28;21034;-81
2021/05/28 11:35:15;;;;;;;3.53;3.20;;;15.60;60.00;;;;;;5063037;28;20462;-81
2021/05/28 11:37:58;;;;;;;3.70;3.40;;;16.00;60.30;;;;;;5068095;28;20468;-81
2021/05/28 11:40:40;;;;;;;3.40;3.20;;;16.20;59.30;;;;;;5069289;28;20455;-81
2021/05/28 11:43:16;;;;;;;3.30;3.00;;;15.90;58.70;;;;;;5067918;28;20199;-80
2021/05/28 11:45:53;;;;;;;4.10;3.80;;;16.10;59.30;;;;;;5065631;28;20505;-81
2021/05/28 11:58:06;;;;;;;3.77;3.27;;;18.40;57.30;;;;;;5056165;28;20510;-82
2021/05/28 12:00:44;;;;;;;3.50;3.20;;;18.00;55.80;;;;;;5048509;28;20468;-83
2021/05/28 12:03:30;;;;;;;4.87;4.30;;;18.30;55.40;;;;;;5073961;28;20509;-83
2021/05/28 12:06:11;;;;;;;3.50;3.17;;;19.40;54.70;;;;;;5055519;28;20477;-83
2021/05/28 12:08:47;;;;;;;2.80;2.30;;;20.00;53.90;;;;;;5051733;28;20477;-83
2021/05/28 12:11:23;;;;;;;3.30;3.00;;;19.60;53.40;;;;;;5042570;28;20475;-82
2021/05/28 12:14:04;;;;;;;2.43;2.30;;;18.10;53.10;;;;;;5047913;28;20549;-81
2021/05/28 12:16:42;;;;;;;5.07;3.13;;;17.70;53.60;;;;;;5047156;28;20447;-81
2021/05/28 12:19:22;;;;;;;3.27;2.60;;;18.30;53.30;;;;;;5052630;28;20457;-80
2021/05/28 12:21:56;;;;;;;4.10;2.40;;;18.90;52.50;;;;;;5052530;28;20458;-81
2021/05/28 12:24:31;;;;;;;4.60;2.33;;;18.10;53.40;;;;;;5050116;28;20438;-82
2021/05/28 12:27:05;;;;;;;2.40;2.20;;;18.20;52.60;;;;;;5047308;28;20524;-83
2021/05/28 12:29:53;;;;;;;2.57;2.37;;;18.30;52.60;;;;;;5056736;28;20470;-82
2021/05/28 12:32:36;;;;;;;2.70;2.50;;;18.60;52.40;;;;;;5056931;28;20468;-82
2021/05/28 12:35:15;;;;;;;2.93;2.70;;;19.20;52.20;;;;;;5063410;28;20452;-83
2021/05/28 12:38:12;;;;;;;3.70;2.20;;;19.20;52.10;;;;;;5056198;28;20481;-83
2021/05/28 12:40:54;;;;;;;2.57;2.37;;;18.50;52.20;;;;;;5052837;28;20479;-82
2021/05/28 12:43:32;;;;;;;2.43;2.20;;;17.80;52.10;;;;;;5069662;28;20900;-82
2021/05/28 12:46:18;;;;;;;2.70;2.40;;;16.80;52.70;;;;;;5056371;28;20452;-81
2021/05/28 12:49:01;;;;;;;3.20;2.30;;;16.50;53.70;;;;;;5063010;28;20465;-81
2021/05/28 12:51:37;;;;;;;2.63;2.20;;;16.50;54.30;;;;;;5057244;28;20549;-80
2021/05/28 12:54:22;;;;;;;3.63;1.87;;;16.80;55.00;;;;;;5055848;28;20448;-81
2021/05/28 12:56:59;;;;;;;3.17;2.00;;;17.00;54.20;;;;;;5059090;28;20551;-82
2021/05/28 12:59:38;;;;;;;2.40;1.60;;;17.20;54.10;;;;;;5053624;28;20488;-80
2021/05/28 13:02:19;;;;;;;2.03;1.90;;;16.70;54.30;;;;;;5051220;28;20453;-80
2021/05/28 13:04:53;;;;;;;2.27;1.60;;;;;;;;;;5047676;28;20460;-80
2021/05/28 13:07:38;;;;;;;5.40;2.10;;;;;;;;;;5048174;28;20454;-80
2021/05/28 13:10:22;;;;;;;3.23;1.83;;;17.60;53.70;;;;;;5049134;28;20456;-80
2021/05/28 13:13:22;;;;;;;2.20;1.70;;;17.20;54.10;;;;;;5046624;28;20842;-81
2021/05/28 13:15:56;;;;;;;3.40;2.57;;;17.70;53.10;;;;;;5054660;28;20459;-80
2021/05/28 13:18:53;;;;;;;1.73;1.63;;;17.90;52.60;;;;;;5062439;28;20466;-81
2021/05/28 13:22:15;;;;;;;1.40;1.30;;;17.40;52.40;;;;;;5052710;28;20463;-88
2021/05/28 13:30:44;;;;;;;2.20;2.00;;;18.10;51.10;;;;;;5053750;28;20446;-86
2021/05/28 13:48:59;;;;;;;1.40;1.17;;;16.50;52.70;;;;;;5054801;28;21396;-88
2021/05/28 14:10:14;;;;;;;1.15;1.00;;;17.70;49.90;;;;;;5043752;28;20614;-82
2021/05/28 14:12:56;;;;;;;1.50;1.10;;;17.00;48.90;;;;;;5053162;28;20332;-86
2021/05/28 14:15:35;;;;;;;1.50;1.00;;;18.00;49.40;;;;;;5053556;28;20457;-86
2021/05/28 14:18:31;;;;;;;1.80;1.10;;;17.30;49.10;;;;;;5058549;28;20451;-87
2021/05/28 14:27:03;;;;;;;2.43;0.83;;;17.60;49.30;;;;;;5046414;28;20468;-89
2021/05/28 14:29:44;;;;;;;1.33;0.87;;;17.10;48.50;;;;;;5043378;28;20477;-87
2021/05/28 14:32:16;;;;;;;1.33;0.90;;;16.90;47.70;;;;;;5051264;28;20465;-87
2021/05/28 14:46:42;;;;;;;2.70;1.00;;;18.60;48.00;;;;;;5046688;28;20450;-88
2021/05/28 15:02:14;;;;;;;3.53;0.97;;;19.30;46.50;;;;;;5055653;28;20524;-88
2021/05/28 15:13:56;;;;;;;3.00;1.03;;;17.60;48.50;;;;;;5057928;28;20470;-87
2021/05/28 15:16:32;;;;;;;1.60;1.20;;;17.40;47.90;;;;;;5064188;28;20431;-87
2021/05/28 15:29:08;;;;;;;1.93;0.87;;;17.50;48.30;;;;;;5062537;28;20487;-88